Home > Products > Valid Products > MTR

000
SAUS44 KMRX 240007
MTRGDP
METAR KGDP 232351Z AUTO 25007KT 10SM CLR 21/08 A3024 RMK AO2 SLP178
T02110083 10244 20206 53004





000
SAUS44 KMRX 231406
MTRGDP
METAR KGDP 231351Z AUTO 23012KT M1/4SM FG VV001 13/13 A3026 RMK AO2
SLP199 T01280128





    US Dept of Commerce
    National Oceanic and Atmospheric Administration
    National Weather Service
    1325 East West Highway
    Silver Spring, MD 20910
    Page Author: NWS Internet Services Team
Disclaimer
Information Quality
Credits
Glossary
Privacy Policy
Freedom of Information Act (FOIA)
About Us
Career Opportunities